Time;durP1;ratioP1;P1;durP2;ratioP2;P2;SDS_P1;SDS_P2;PMS_P1;PMS_P2;Temp;Humidity;BMP_temperature;BMP_pressure;BME280_temperature;BME280_humidity;BME280_pressure;Samples;Min_cycle;Max_cycle;Signal;HPM_P1;HPM_P2
2023/06/01 00:02:09;;;;;;;13.27;5.25;;;14.10;99.90;;;;;;4907146;29;20050;-76
2023/06/01 00:04:40;;;;;;;8.32;4.45;;;14.10;99.90;;;;;;4925214;29;20050;-75
2023/06/01 00:07:06;;;;;;;12.38;5.63;;;14.00;99.90;;;;;;4899525;28;20040;-77
2023/06/01 00:09:32;;;;;;;11.30;5.18;;;14.00;99.90;;;;;;4909014;28;20043;-76
2023/06/01 00:11:57;;;;;;;8.60;4.47;;;14.10;99.90;;;;;;4921283;29;20040;-75
2023/06/01 00:14:23;;;;;;;9.10;4.43;;;14.00;99.90;;;;;;4911072;29;20044;-75
2023/06/01 00:16:50;;;;;;;8.63;4.30;;;13.90;99.90;;;;;;4904722;28;20074;-78
2023/06/01 00:19:16;;;;;;;11.10;4.65;;;13.90;99.90;;;;;;4902915;29;20489;-79
2023/06/01 00:21:41;;;;;;;9.50;4.38;;;13.90;99.90;;;;;;4919657;29;20118;-77
2023/06/01 00:24:07;;;;;;;14.32;5.28;;;13.90;99.90;;;;;;4903325;28;20384;-77
2023/06/01 00:26:33;;;;;;;11.02;4.97;;;14.00;99.90;;;;;;4922556;29;20115;-77
2023/06/01 00:28:59;;;;;;;14.70;4.90;;;13.90;99.90;;;;;;4921889;28;20657;-76
2023/06/01 00:31:25;;;;;;;8.48;4.25;;;13.90;99.90;;;;;;4925124;28;20086;-80
2023/06/01 00:33:52;;;;;;;11.70;5.22;;;13.80;99.90;;;;;;4910077;29;20197;-78
2023/06/01 00:36:18;;;;;;;13.18;5.55;;;13.90;99.90;;;;;;4910747;29;20048;-76
2023/06/01 00:38:44;;;;;;;12.80;4.80;;;14.00;99.90;;;;;;4910956;28;20389;-75
2023/06/01 00:41:09;;;;;;;9.65;5.05;;;14.00;99.90;;;;;;4927052;29;20054;-82
2023/06/01 00:43:35;;;;;;;11.75;4.95;;;14.00;99.90;;;;;;4893809;28;20158;-77
2023/06/01 00:46:01;;;;;;;8.25;4.45;;;13.70;99.90;;;;;;4925562;29;20051;-78
2023/06/01 00:48:27;;;;;;;11.95;4.70;;;13.90;99.90;;;;;;4912108;28;20032;-79
2023/06/01 00:50:53;;;;;;;9.30;4.88;;;14.00;99.90;;;;;;4910838;29;20144;-74
2023/06/01 00:53:20;;;;;;;12.93;5.00;;;14.00;99.90;;;;;;4892022;28;20119;-79
2023/06/01 00:55:46;;;;;;;10.68;5.13;;;14.00;99.90;;;;;;4924725;28;20376;-76
2023/06/01 00:58:13;;;;;;;8.48;4.65;;;14.00;99.90;;;;;;4924487;29;20040;-77
2023/06/01 01:00:40;;;;;;;10.90;4.57;;;13.90;99.90;;;;;;4909362;29;20054;-76
2023/06/01 01:03:09;;;;;;;13.95;5.63;;;13.90;99.90;;;;;;4892019;28;20063;-78
2023/06/01 01:05:37;;;;;;;7.85;4.68;;;14.00;99.90;;;;;;4908702;28;20039;-76
2023/06/01 01:08:35;;;;;;;12.70;5.32;;;13.90;99.90;;;;;;4891818;28;20044;-80
2023/06/01 01:11:15;;;;;;;12.25;5.00;;;14.00;99.90;;;;;;4905215;29;20044;-76
2023/06/01 01:13:52;;;;;;;10.85;5.05;;;13.90;99.90;;;;;;4899789;28;20131;-78
2023/06/01 01:16:30;;;;;;;9.10;4.97;;;13.90;99.90;;;;;;4905134;28;20040;-76
2023/06/01 01:19:16;;;;;;;9.68;4.85;;;14.00;99.90;;;;;;4923664;29;20043;-77
2023/06/01 01:21:51;;;;;;;15.20;5.72;;;14.00;99.90;;;;;;4921966;29;20059;-77
2023/06/01 01:24:55;;;;;;;11.85;4.85;;;14.00;99.90;;;;;;4923367;29;20416;-76
2023/06/01 01:27:43;;;;;;;9.82;4.80;;;13.90;99.90;;;;;;4916954;28;20044;-78
2023/06/01 01:30:10;;;;;;;9.48;5.00;;;14.00;99.90;;;;;;4924043;29;20051;-77
2023/06/01 01:32:38;;;;;;;11.88;5.75;;;14.00;99.90;;;;;;4908754;29;20056;-77
2023/06/01 01:35:06;;;;;;;8.10;4.82;;;13.90;99.90;;;;;;4911377;29;20100;-80
2023/06/01 01:37:33;;;;;;;10.68;4.82;;;13.90;99.90;;;;;;4892918;29;20568;-76
2023/06/01 01:39:59;;;;;;;7.55;4.45;;;13.90;99.90;;;;;;4929125;29;20089;-79
2023/06/01 01:42:27;;;;;;;8.57;4.88;;;13.90;99.90;;;;;;4924496;29;20047;-79
2023/06/01 01:44:52;;;;;;;9.75;4.97;;;13.90;99.90;;;;;;4911408;29;20054;-74
2023/06/01 01:47:36;;;;;;;9.98;4.43;;;14.00;99.90;;;;;;4914264;28;20054;-74
2023/06/01 01:50:10;;;;;;;10.10;4.70;;;14.00;99.90;;;;;;4909708;29;20126;-75
2023/06/01 01:52:42;;;;;;;11.07;4.95;;;13.60;99.90;;;;;;4912808;29;20127;-80
2023/06/01 01:55:09;;;;;;;10.23;4.80;;;14.00;99.90;;;;;;4910378;28;20048;-75
2023/06/01 01:57:35;;;;;;;11.75;5.93;;;14.00;99.90;;;;;;4911270;29;20047;-75
2023/06/01 02:00:07;;;;;;;9.93;4.45;;;14.00;99.90;;;;;;4927353;29;20048;-77
2023/06/01 02:02:33;;;;;;;12.38;4.68;;;14.00;99.90;;;;;;4928769;29;20043;-76
2023/06/01 02:04:58;;;;;;;9.88;5.00;;;14.00;99.90;;;;;;4892089;29;20106;-75
2023/06/01 02:07:24;;;;;;;8.70;5.22;;;14.00;99.90;;;;;;4930221;29;20044;-78
2023/06/01 02:09:50;;;;;;;10.23;5.07;;;14.00;99.90;;;;;;4930744;29;20040;-77
2023/06/01 02:12:16;;;;;;;9.45;4.78;;;13.90;99.90;;;;;;4915720;29;20498;-78
2023/06/01 02:14:41;;;;;;;7.88;5.05;;;14.10;99.90;;;;;;4890927;28;20403;-77
2023/06/01 02:17:08;;;;;;;11.80;5.63;;;14.00;99.90;;;;;;4913999;28;20392;-81
2023/06/01 02:19:34;;;;;;;7.72;4.35;;;13.90;99.90;;;;;;4911448;28;20048;-76
2023/06/01 02:22:00;;;;;;;7.70;3.97;;;13.90;99.90;;;;;;4912676;28;20150;-76
2023/06/01 02:24:25;;;;;;;8.65;4.00;;;13.80;99.90;;;;;;4926478;29;20070;-77
2023/06/01 02:26:55;;;;;;;8.20;4.05;;;13.90;99.90;;;;;;4897396;29;20051;-79
2023/06/01 02:29:22;;;;;;;6.80;3.97;;;13.80;99.90;;;;;;4912729;29;20040;-75
2023/06/01 02:31:52;;;;;;;6.00;3.40;;;13.80;99.90;;;;;;4930031;28;20090;-81
2023/06/01 02:34:18;;;;;;;9.60;3.78;;;13.90;99.90;;;;;;4908394;28;20039;-77
2023/06/01 02:36:44;;;;;;;9.00;3.78;;;13.90;99.90;;;;;;4927267;29;20499;-78
2023/06/01 02:39:10;;;;;;;8.38;4.25;;;13.90;99.90;;;;;;4911253;28;20040;-78
2023/06/01 02:41:36;;;;;;;8.15;4.10;;;13.90;99.90;;;;;;4912723;28;20047;-79
2023/06/01 02:44:02;;;;;;;11.90;3.95;;;13.90;99.90;;;;;;4881033;28;20035;-75
2023/06/01 02:46:28;;;;;;;6.68;3.40;;;13.80;99.90;;;;;;4926210;29;20356;-75
2023/06/01 02:48:53;;;;;;;9.07;4.10;;;14.00;99.90;;;;;;4911018;29;20055;-77
2023/06/01 02:51:19;;;;;;;10.05;3.70;;;13.90;99.90;;;;;;4911689;28;20052;-75
2023/06/01 02:53:48;;;;;;;8.70;3.60;;;13.90;99.90;;;;;;4910386;28;20557;-77
2023/06/01 02:56:14;;;;;;;7.55;3.30;;;13.90;99.90;;;;;;4893723;28;20051;-78
2023/06/01 02:58:41;;;;;;;5.53;3.13;;;13.90;99.90;;;;;;4927250;29;20044;-77
2023/06/01 03:01:11;;;;;;;6.50;3.47;;;13.90;99.90;;;;;;4897119;29;20052;-80
2023/06/01 03:03:38;;;;;;;10.07;4.15;;;14.00;99.90;;;;;;4913243;28;20146;-76
2023/06/01 03:06:05;;;;;;;7.13;3.33;;;14.00;99.90;;;;;;4907099;28;20047;-79
2023/06/01 03:08:31;;;;;;;6.97;3.38;;;14.00;99.90;;;;;;4909563;29;20044;-79
2023/06/01 03:10:57;;;;;;;11.00;3.95;;;13.90;99.90;;;;;;4911427;29;20114;-77
2023/06/01 03:13:23;;;;;;;5.70;3.40;;;13.90;99.90;;;;;;4912197;29;20460;-78
2023/06/01 03:15:50;;;;;;;7.20;3.67;;;13.90;99.90;;;;;;4892998;28;20052;-77
2023/06/01 03:18:16;;;;;;;8.57;3.75;;;14.00;99.90;;;;;;4915537;28;20027;-78
2023/06/01 03:20:42;;;;;;;6.57;3.45;;;13.90;99.90;;;;;;4943716;29;20060;-77
2023/06/01 03:23:08;;;;;;;8.57;4.30;;;14.00;99.90;;;;;;4927618;28;20615;-78
2023/06/01 03:25:34;;;;;;;6.03;3.53;;;14.00;99.90;;;;;;4912594;28;20508;-79
2023/06/01 03:28:03;;;;;;;9.80;4.43;;;14.00;99.90;;;;;;4927803;28;20043;-80
2023/06/01 03:30:28;;;;;;;9.15;3.83;;;14.00;99.90;;;;;;4890435;28;20105;-77
2023/06/01 03:32:54;;;;;;;10.23;4.28;;;14.00;99.90;;;;;;4928907;29;20559;-78
2023/06/01 03:35:20;;;;;;;8.50;4.03;;;13.90;99.90;;;;;;4899881;28;20149;-78
2023/06/01 03:37:46;;;;;;;9.45;4.20;;;13.90;99.90;;;;;;4878336;29;20094;-80
2023/06/01 03:40:12;;;;;;;11.52;4.72;;;13.90;99.90;;;;;;4909099;29;20384;-79
2023/06/01 03:42:42;;;;;;;13.52;4.90;;;13.90;99.90;;;;;;4898142;28;20051;-80
2023/06/01 03:45:09;;;;;;;11.52;4.38;;;14.00;99.90;;;;;;4912350;29;20098;-77
2023/06/01 03:47:36;;;;;;;12.70;4.65;;;14.00;99.90;;;;;;4910909;28;20044;-78
2023/06/01 03:50:03;;;;;;;7.38;4.50;;;14.00;99.90;;;;;;4910945;29;20052;-76
2023/06/01 03:52:29;;;;;;;8.43;4.90;;;13.90;99.90;;;;;;4901834;28;20135;-75
2023/06/01 03:54:56;;;;;;;11.27;4.38;;;13.90;99.90;;;;;;4927050;28;20079;-77
2023/06/01 03:57:23;;;;;;;12.80;5.13;;;14.00;99.90;;;;;;4907545;28;20118;-79
2023/06/01 03:59:48;;;;;;;10.93;4.40;;;14.00;99.90;;;;;;4921882;29;20044;-77
2023/06/01 04:02:14;;;;;;;13.07;5.30;;;13.90;99.90;;;;;;4907321;28;20035;-76
2023/06/01 04:04:45;;;;;;;8.02;4.70;;;13.90;99.90;;;;;;4911000;28;20505;-78
2023/06/01 04:07:14;;;;;;;11.30;4.25;;;13.90;99.90;;;;;;4925690;29;20512;-75
2023/06/01 04:09:41;;;;;;;8.43;4.18;;;14.00;99.90;;;;;;4926228;29;20114;-78
2023/06/01 04:12:07;;;;;;;7.80;3.97;;;13.90;99.90;;;;;;4894983;28;20044;-79
2023/06/01 04:14:32;;;;;;;5.38;3.72;;;13.90;99.90;;;;;;4891662;28;20043;-80
2023/06/01 04:16:58;;;;;;;10.38;4.45;;;14.00;99.90;;;;;;4912371;29;20109;-75
2023/06/01 04:19:24;;;;;;;9.60;4.47;;;13.80;99.90;;;;;;4908521;28;20040;-80
2023/06/01 04:21:50;;;;;;;12.68;5.65;;;13.90;99.90;;;;;;4958732;28;21049;-78
2023/06/01 04:24:16;;;;;;;7.93;4.30;;;13.90;99.90;;;;;;4894830;28;20035;-76
2023/06/01 04:26:41;;;;;;;11.77;5.13;;;13.90;99.90;;;;;;4894392;28;20040;-74
2023/06/01 04:29:08;;;;;;;13.63;4.18;;;13.90;99.90;;;;;;4907236;28;20043;-76
2023/06/01 04:31:34;;;;;;;10.77;4.88;;;13.90;99.90;;;;;;4905775;28;20480;-75
2023/06/01 04:34:01;;;;;;;6.82;4.45;;;13.90;99.90;;;;;;4924724;28;20051;-77
2023/06/01 04:36:32;;;;;;;8.45;4.63;;;13.90;99.90;;;;;;4909565;28;20047;-76
2023/06/01 04:38:59;;;;;;;10.68;4.68;;;14.00;99.90;;;;;;4924818;29;20411;-75
2023/06/01 04:41:25;;;;;;;12.48;4.80;;;14.00;99.90;;;;;;4887489;28;20052;-78
2023/06/01 04:43:52;;;;;;;7.93;4.38;;;13.90;99.90;;;;;;4908520;29;20614;-77
2023/06/01 04:46:23;;;;;;;9.00;4.50;;;13.90;99.90;;;;;;4907124;29;20065;-75
2023/06/01 04:49:01;;;;;;;9.75;4.53;;;14.00;99.90;;;;;;4924271;29;20055;-76
2023/06/01 04:51:27;;;;;;;10.90;4.63;;;14.00;99.90;;;;;;4910283;28;20126;-79
2023/06/01 04:53:53;;;;;;;11.00;4.68;;;14.00;99.90;;;;;;4922163;29;20377;-78
2023/06/01 04:56:25;;;;;;;12.95;5.00;;;14.00;99.90;;;;;;4913821;28;20055;-78
2023/06/01 04:58:55;;;;;;;9.55;4.45;;;14.00;99.90;;;;;;4908141;29;20082;-76
2023/06/01 05:01:25;;;;;;;9.48;4.07;;;13.90;99.90;;;;;;4906135;29;20093;-76
2023/06/01 05:03:53;;;;;;;10.23;4.35;;;13.90;99.90;;;;;;4910346;29;20480;-78
2023/06/01 05:06:20;;;;;;;10.25;4.07;;;14.00;99.90;;;;;;4927295;29;20044;-76
2023/06/01 05:08:46;;;;;;;8.98;3.88;;;14.10;99.90;;;;;;4908748;29;20063;-76
2023/06/01 05:11:12;;;;;;;12.05;4.95;;;14.00;99.90;;;;;;4880878;28;20391;-80
2023/06/01 05:13:38;;;;;;;7.05;4.90;;;14.00;99.90;;;;;;4891611;29;20048;-77
2023/06/01 05:16:05;;;;;;;9.02;4.30;;;14.10;99.90;;;;;;4920994;29;20044;-80
2023/06/01 05:18:32;;;;;;;10.60;4.60;;;14.00;99.90;;;;;;4906829;29;20097;-79
2023/06/01 05:20:58;;;;;;;8.50;3.60;;;14.10;99.90;;;;;;4911866;29;20040;-79
2023/06/01 05:23:25;;;;;;;4.65;3.30;;;13.90;99.90;;;;;;4914580;28;20054;-76
2023/06/01 05:25:52;;;;;;;6.95;3.60;;;13.90;99.90;;;;;;4920024;28;20040;-79
2023/06/01 05:28:20;;;;;;;4.72;3.40;;;13.90;99.90;;;;;;4909489;28;20138;-76
2023/06/01 05:30:46;;;;;;;5.40;3.17;;;13.90;99.90;;;;;;4909374;29;20043;-76
2023/06/01 05:33:12;;;;;;;7.93;3.33;;;14.00;99.90;;;;;;4922275;28;20966;-77
2023/06/01 05:35:38;;;;;;;7.72;3.00;;;14.10;99.90;;;;;;4891833;29;20051;-75
2023/06/01 05:38:04;;;;;;;7.05;2.90;;;14.10;99.90;;;;;;4909975;29;20051;-75
2023/06/01 05:40:29;;;;;;;5.63;3.20;;;14.10;99.90;;;;;;4910397;29;20066;-77
2023/06/01 05:42:55;;;;;;;7.13;3.15;;;14.10;99.90;;;;;;4908948;29;20488;-76
2023/06/01 05:45:21;;;;;;;4.35;2.88;;;14.20;99.90;;;;;;4908344;28;20036;-79
2023/06/01 05:47:47;;;;;;;6.75;3.38;;;14.10;99.90;;;;;;4906092;28;20037;-78
2023/06/01 05:50:12;;;;;;;5.82;3.10;;;14.00;99.90;;;;;;4924823;28;20052;-75
2023/06/01 05:52:39;;;;;;;5.38;2.50;;;14.00;99.90;;;;;;4924815;28;20441;-78
2023/06/01 05:55:05;;;;;;;5.47;3.03;;;14.00;99.90;;;;;;4925157;28;20063;-75
2023/06/01 05:57:31;;;;;;;4.93;2.63;;;14.10;99.90;;;;;;4924108;28;20733;-79
2023/06/01 05:59:57;;;;;;;6.35;3.35;;;14.40;99.90;;;;;;4910168;29;20118;-79
2023/06/01 06:02:23;;;;;;;4.20;3.08;;;14.10;99.90;;;;;;4890438;28;20079;-73
2023/06/01 06:04:48;;;;;;;5.70;3.17;;;14.10;99.90;;;;;;4902434;28;20036;-75
2023/06/01 06:07:14;;;;;;;7.57;2.95;;;14.00;99.90;;;;;;4907650;28;20168;-76
2023/06/01 06:09:40;;;;;;;7.18;3.15;;;14.20;99.90;;;;;;4922333;29;20051;-77
2023/06/01 06:12:06;;;;;;;6.20;2.80;;;14.30;99.90;;;;;;4921914;28;20048;-76
2023/06/01 06:14:32;;;;;;;6.47;2.90;;;14.30;99.90;;;;;;4909216;29;20047;-77
2023/06/01 06:16:58;;;;;;;4.68;2.50;;;14.20;99.90;;;;;;4924274;28;20048;-75
2023/06/01 06:19:24;;;;;;;4.07;2.33;;;14.00;99.90;;;;;;4894629;29;20048;-79
2023/06/01 06:21:49;;;;;;;3.33;2.40;;;14.50;99.90;;;;;;4927172;29;20118;-80
2023/06/01 06:24:15;;;;;;;3.15;1.98;;;14.40;99.90;;;;;;4892262;29;20036;-75
2023/06/01 06:26:41;;;;;;;3.60;2.10;;;14.20;99.90;;;;;;4924905;28;20050;-74
2023/06/01 06:29:06;;;;;;;2.50;1.90;;;14.40;99.90;;;;;;4923652;28;20354;-77
2023/06/01 06:31:32;;;;;;;2.92;2.00;;;14.30;99.90;;;;;;4910133;29;20480;-75
2023/06/01 06:33:58;;;;;;;3.80;1.88;;;14.60;99.90;;;;;;4893779;29;20043;-77
2023/06/01 06:36:23;;;;;;;2.88;1.83;;;14.20;99.90;;;;;;4909821;29;20055;-75
2023/06/01 06:38:49;;;;;;;2.45;1.75;;;14.40;99.90;;;;;;4917522;28;20044;-78
2023/06/01 06:41:15;;;;;;;3.70;2.00;;;14.40;99.90;;;;;;4926156;28;20047;-77
2023/06/01 06:43:41;;;;;;;4.28;1.80;;;14.50;99.90;;;;;;4926773;29;20028;-79
2023/06/01 06:46:07;;;;;;;3.97;1.90;;;14.50;99.90;;;;;;4911231;29;20093;-77
2023/06/01 06:48:33;;;;;;;3.38;2.00;;;14.30;99.90;;;;;;4930991;28;20043;-75
2023/06/01 06:50:59;;;;;;;3.72;2.40;;;14.30;99.90;;;;;;4912260;29;20055;-75
2023/06/01 06:53:24;;;;;;;2.33;1.60;;;14.50;99.90;;;;;;4927676;29;20044;-78
2023/06/01 06:55:50;;;;;;;3.53;2.22;;;14.70;99.90;;;;;;4909706;29;20094;-78
2023/06/01 06:58:16;;;;;;;4.60;2.03;;;14.50;99.90;;;;;;4927144;28;20093;-75
2023/06/01 07:00:41;;;;;;;8.20;2.53;;;14.80;99.90;;;;;;4926979;29;20056;-77
2023/06/01 07:03:08;;;;;;;5.50;2.63;;;14.80;99.90;;;;;;4914139;28;20043;-77
2023/06/01 07:05:34;;;;;;;3.83;2.67;;;15.00;99.90;;;;;;4909663;29;20125;-78
2023/06/01 07:08:02;;;;;;;5.13;2.83;;;14.40;99.90;;;;;;4907951;28;20433;-74
2023/06/01 07:10:28;;;;;;;4.85;3.03;;;14.60;99.90;;;;;;4927229;29;20034;-76
2023/06/01 07:12:53;;;;;;;3.75;2.47;;;14.50;99.90;;;;;;4908261;29;20047;-75
2023/06/01 07:15:19;;;;;;;4.43;2.75;;;14.80;99.90;;;;;;4894690;29;20554;-78
2023/06/01 07:17:45;;;;;;;4.15;2.58;;;14.90;99.90;;;;;;4925087;28;20427;-77
2023/06/01 07:20:11;;;;;;;3.42;2.38;;;14.40;99.90;;;;;;4925599;29;20408;-75
2023/06/01 07:22:38;;;;;;;4.10;2.75;;;14.50;99.90;;;;;;4910491;29;20423;-73
2023/06/01 07:25:05;;;;;;;4.22;2.10;;;15.00;99.90;;;;;;4925201;29;20125;-78
2023/06/01 07:27:38;;;;;;;4.50;2.40;;;14.90;99.90;;;;;;4924841;28;20134;-74
2023/06/01 07:30:08;;;;;;;5.93;2.88;;;14.70;99.90;;;;;;4904442;29;20031;-80
2023/06/01 07:32:35;;;;;;;3.80;2.33;;;14.70;99.90;;;;;;4890073;29;20043;-80
2023/06/01 07:35:02;;;;;;;5.18;3.05;;;14.90;99.90;;;;;;4907006;28;20673;-79
2023/06/01 07:37:27;;;;;;;5.80;2.92;;;14.60;99.90;;;;;;4907481;29;20052;-75
2023/06/01 07:39:54;;;;;;;6.78;3.67;;;14.40;99.90;;;;;;4910973;29;20040;-74
2023/06/01 07:42:20;;;;;;;6.63;2.97;;;14.60;99.90;;;;;;4909678;28;20432;-77
2023/06/01 07:44:46;;;;;;;8.88;3.75;;;14.50;99.90;;;;;;4896038;29;20101;-77
2023/06/01 07:47:12;;;;;;;5.40;3.30;;;14.80;99.90;;;;;;4882023;28;20064;-76
2023/06/01 07:49:38;;;;;;;7.13;3.58;;;14.70;99.90;;;;;;4908523;29;20052;-78
2023/06/01 07:52:05;;;;;;;5.75;2.80;;;14.60;99.90;;;;;;4927355;29;20059;-78
2023/06/01 07:54:34;;;;;;;8.05;3.45;;;14.80;99.90;;;;;;4908125;28;20058;-75
2023/06/01 07:57:00;;;;;;;5.82;3.15;;;14.50;99.90;;;;;;4909006;28;20040;-75
2023/06/01 07:59:27;;;;;;;5.97;3.45;;;14.90;99.90;;;;;;4926452;28;20051;-71
2023/06/01 08:01:55;;;;;;;3.83;2.78;;;14.80;99.90;;;;;;4879466;28;20043;-75
2023/06/01 08:04:24;;;;;;;4.60;2.00;;;14.80;99.90;;;;;;4905274;29;20480;-76
2023/06/01 08:06:52;;;;;;;7.78;2.83;;;14.90;99.90;;;;;;4894822;29;20043;-78
2023/06/01 08:09:27;;;;;;;7.03;2.60;;;14.80;99.90;;;;;;4922354;28;21026;-76
2023/06/01 08:11:53;;;;;;;4.35;2.58;;;14.70;99.90;;;;;;4913173;28;20047;-75
2023/06/01 08:14:19;;;;;;;7.05;2.83;;;14.80;99.90;;;;;;4906116;29;20060;-77
2023/06/01 08:16:45;;;;;;;6.00;3.33;;;14.80;99.90;;;;;;4922592;28;20035;-74
2023/06/01 08:19:11;;;;;;;5.25;2.88;;;14.90;99.90;;;;;;4922686;28;20054;-81
2023/06/01 08:21:37;;;;;;;5.43;2.70;;;14.60;99.90;;;;;;4944110;28;20400;-73
2023/06/01 08:24:03;;;;;;;5.50;2.88;;;14.80;99.90;;;;;;4913173;28;20042;-73
2023/06/01 08:26:29;;;;;;;5.38;2.38;;;14.80;99.90;;;;;;4906671;28;20043;-75
2023/06/01 08:28:55;;;;;;;10.10;3.50;;;14.70;99.90;;;;;;4905848;28;20043;-78
2023/06/01 08:31:22;;;;;;;5.90;3.10;;;14.90;99.90;;;;;;4910423;29;20047;-78
2023/06/01 08:33:50;;;;;;;10.85;4.00;;;15.10;99.90;;;;;;4925792;29;20044;-76
2023/06/01 08:36:16;;;;;;;8.75;3.47;;;15.10;99.90;;;;;;4911109;29;20036;-78
2023/06/01 08:38:42;;;;;;;12.85;3.97;;;15.00;99.90;;;;;;4918125;28;20086;-75
2023/06/01 08:41:25;;;;;;;8.57;4.13;;;15.10;99.90;;;;;;4930939;28;20049;-77
2023/06/01 08:44:11;;;;;;;9.05;3.72;;;15.00;99.90;;;;;;4929295;28;20048;-75
2023/06/01 08:46:41;;;;;;;8.90;3.50;;;15.00;99.90;;;;;;4933894;28;20036;-77
2023/06/01 08:49:07;;;;;;;14.05;3.65;;;14.70;99.90;;;;;;4983227;28;20070;-76
2023/06/01 08:51:37;;;;;;;5.15;3.13;;;14.70;99.90;;;;;;4896328;29;20035;-77
2023/06/01 08:54:05;;;;;;;11.77;3.13;;;14.90;99.90;;;;;;4919435;28;20074;-77
2023/06/01 08:56:31;;;;;;;7.15;3.00;;;14.80;99.90;;;;;;4910982;28;20064;-78
2023/06/01 08:58:56;;;;;;;8.13;3.28;;;14.70;99.90;;;;;;4911354;28;20138;-76
2023/06/01 09:01:23;;;;;;;7.57;3.28;;;14.80;99.90;;;;;;4889679;28;20459;-77
2023/06/01 09:03:50;;;;;;;8.02;2.75;;;15.10;99.90;;;;;;4921795;28;20472;-73
2023/06/01 09:06:16;;;;;;;9.25;3.30;;;15.10;99.90;;;;;;4926166;28;20047;-73
2023/06/01 09:08:42;;;;;;;9.20;3.15;;;15.00;99.90;;;;;;4894862;29;20048;-72
2023/06/01 09:11:07;;;;;;;8.55;3.20;;;14.90;99.90;;;;;;4904030;28;20036;-70
2023/06/01 09:13:35;;;;;;;9.70;3.22;;;15.10;99.90;;;;;;4920403;28;20135;-74
2023/06/01 09:16:01;;;;;;;7.65;2.80;;;15.20;99.90;;;;;;4929148;28;20044;-75
2023/06/01 09:18:27;;;;;;;9.27;2.95;;;15.10;99.90;;;;;;4927054;28;20043;-76
2023/06/01 09:20:53;;;;;;;10.95;2.97;;;15.20;99.90;;;;;;4922823;28;20495;-77
2023/06/01 09:23:26;;;;;;;7.10;2.83;;;15.30;99.90;;;;;;4927844;29;20047;-75
2023/06/01 09:26:12;;;;;;;8.93;3.58;;;15.10;99.90;;;;;;4905543;28;20099;-74
2023/06/01 09:28:58;;;;;;;9.25;3.47;;;15.20;99.90;;;;;;4924222;28;20050;-77
2023/06/01 09:31:44;;;;;;;9.32;2.85;;;15.20;99.90;;;;;;4938431;28;20035;-77
2023/06/01 09:34:18;;;;;;;11.07;2.97;;;15.10;99.90;;;;;;4907952;28;20540;-75
2023/06/01 09:36:48;;;;;;;6.93;2.88;;;15.10;99.90;;;;;;4924855;28;20044;-76
2023/06/01 09:39:17;;;;;;;7.28;2.90;;;15.00;99.90;;;;;;4893145;28;20131;-79
2023/06/01 09:41:58;;;;;;;9.20;3.65;;;15.20;99.90;;;;;;4925498;28;20067;-76
2023/06/01 09:44:32;;;;;;;12.77;4.07;;;15.20;99.90;;;;;;4926385;28;20050;-76
2023/06/01 09:47:01;;;;;;;12.68;3.53;;;15.20;99.90;;;;;;4908392;28;20036;-74
2023/06/01 09:49:38;;;;;;;5.80;2.67;;;15.10;99.90;;;;;;4903938;28;20058;-74
2023/06/01 09:52:04;;;;;;;8.18;3.00;;;15.30;99.90;;;;;;4916851;28;20114;-74
2023/06/01 09:54:37;;;;;;;10.10;3.30;;;15.40;99.90;;;;;;4901169;29;20170;-75
2023/06/01 09:57:04;;;;;;;6.25;2.90;;;15.50;99.90;;;;;;4918181;28;20044;-74
2023/06/01 09:59:44;;;;;;;5.47;2.70;;;15.60;99.90;;;;;;4927120;28;20503;-77
2023/06/01 10:02:23;;;;;;;10.48;3.22;;;15.50;99.90;;;;;;4902747;29;20040;-79
2023/06/01 10:04:55;;;;;;;6.30;2.60;;;15.70;99.90;;;;;;4908763;28;20039;-75
2023/06/01 10:07:22;;;;;;;11.00;3.47;;;15.60;99.90;;;;;;4932179;28;20094;-74
2023/06/01 10:09:55;;;;;;;7.15;2.78;;;15.50;99.90;;;;;;4907218;28;20047;-76
2023/06/01 10:12:22;;;;;;;10.18;3.67;;;15.70;99.90;;;;;;4907495;28;20051;-73
2023/06/01 10:14:50;;;;;;;4.75;2.70;;;15.70;99.90;;;;;;4913074;28;20070;-75
2023/06/01 10:17:16;;;;;;;5.95;2.63;;;15.70;99.90;;;;;;4928209;28;20452;-73
2023/06/01 10:19:42;;;;;;;8.05;2.88;;;15.80;99.90;;;;;;4910940;28;20148;-76
2023/06/01 10:22:10;;;;;;;8.10;3.38;;;15.80;99.90;;;;;;4905835;28;20049;-74
2023/06/01 10:24:40;;;;;;;7.93;3.28;;;15.70;99.90;;;;;;4929715;29;20510;-74
2023/06/01 10:27:31;;;;;;;7.28;2.75;;;15.90;99.90;;;;;;4934940;28;20039;-78
2023/06/01 10:29:57;;;;;;;8.13;3.10;;;15.80;99.90;;;;;;4925725;28;20623;-78
2023/06/01 10:32:46;;;;;;;10.63;3.75;;;15.70;99.90;;;;;;4923462;28;20131;-75
2023/06/01 10:35:30;;;;;;;10.05;3.92;;;15.70;99.90;;;;;;4928408;28;20047;-75
2023/06/01 10:38:12;;;;;;;7.72;3.78;;;15.90;99.90;;;;;;4921697;28;20047;-75
2023/06/01 10:40:43;;;;;;;8.30;3.55;;;16.10;99.90;;;;;;4928203;28;20056;-74
2023/06/01 10:43:37;;;;;;;9.30;3.53;;;16.00;99.90;;;;;;4910316;28;20046;-75
2023/06/01 10:46:08;;;;;;;6.10;2.63;;;16.00;99.90;;;;;;4927192;28;20047;-76
2023/06/01 10:48:55;;;;;;;6.45;2.97;;;16.10;99.90;;;;;;4914663;29;20423;-75
2023/06/01 10:51:24;;;;;;;6.93;3.22;;;16.10;99.90;;;;;;4910553;28;20052;-77
2023/06/01 10:53:50;;;;;;;8.15;3.00;;;16.20;99.90;;;;;;4914163;29;20048;-76
2023/06/01 10:56:28;;;;;;;6.93;2.33;;;16.30;99.90;;;;;;4930753;28;20122;-74
2023/06/01 10:59:06;;;;;;;5.60;3.03;;;16.40;99.90;;;;;;4930220;29;20723;-80
2023/06/01 11:01:33;;;;;;;6.40;2.65;;;16.20;99.90;;;;;;4929518;29;20396;-77
2023/06/01 11:03:59;;;;;;;9.18;2.85;;;16.30;99.90;;;;;;4908017;28;20051;-77
2023/06/01 11:06:28;;;;;;;7.43;2.60;;;16.30;99.90;;;;;;4922224;28;20039;-78
2023/06/01 11:08:56;;;;;;;9.23;3.38;;;16.20;99.90;;;;;;4930246;29;20392;-78
2023/06/01 11:11:22;;;;;;;10.10;3.28;;;16.00;99.90;;;;;;4896639;28;20040;-74
2023/06/01 11:14:11;;;;;;;9.20;3.08;;;16.10;99.90;;;;;;4905888;28;20408;-80
2023/06/01 11:16:37;;;;;;;6.55;3.08;;;16.20;99.90;;;;;;4915989;28;20043;-74
2023/06/01 11:19:04;;;;;;;10.27;3.67;;;16.20;99.90;;;;;;4913251;29;20045;-78
2023/06/01 11:21:35;;;;;;;6.63;2.90;;;16.30;99.90;;;;;;4936955;28;20050;-77
2023/06/01 11:24:05;;;;;;;7.03;2.78;;;16.10;99.90;;;;;;4918930;28;20127;-77
2023/06/01 11:26:36;;;;;;;5.00;2.83;;;16.20;99.90;;;;;;4936995;28;20052;-76
2023/06/01 11:29:03;;;;;;;7.95;2.67;;;16.00;99.90;;;;;;4937786;28;20036;-78
2023/06/01 11:31:37;;;;;;;6.07;2.55;;;16.00;99.90;;;;;;4923036;29;20036;-75
2023/06/01 11:34:03;;;;;;;6.05;3.15;;;16.00;99.90;;;;;;4937028;28;20091;-76
2023/06/01 11:36:29;;;;;;;6.07;2.40;;;16.00;99.90;;;;;;4940376;28;20044;-72
2023/06/01 11:38:56;;;;;;;9.05;2.88;;;16.00;99.90;;;;;;4918101;28;20055;-73
2023/06/01 11:41:26;;;;;;;8.63;3.22;;;16.00;99.90;;;;;;4923331;29;20054;-74
2023/06/01 11:43:58;;;;;;;8.50;2.95;;;16.10;99.90;;;;;;4935594;28;20048;-73
2023/06/01 11:46:30;;;;;;;9.15;2.83;;;16.10;99.90;;;;;;4923289;29;20040;-73
2023/06/01 11:49:01;;;;;;;5.35;2.80;;;16.10;99.90;;;;;;4905352;29;20040;-69
2023/06/01 11:51:32;;;;;;;7.25;2.90;;;16.20;99.90;;;;;;4924607;28;20044;-78
2023/06/01 11:54:00;;;;;;;5.60;2.42;;;16.20;99.90;;;;;;4927101;28;20035;-72
2023/06/01 11:56:35;;;;;;;6.32;3.00;;;16.20;99.90;;;;;;4931783;29;20415;-72
2023/06/01 11:59:11;;;;;;;7.88;2.90;;;16.20;99.90;;;;;;4907723;28;20741;-72
2023/06/01 12:01:42;;;;;;;8.95;2.70;;;16.30;99.90;;;;;;4931373;29;20039;-74
2023/06/01 12:04:12;;;;;;;10.32;4.25;;;16.20;99.90;;;;;;4933566;29;20118;-74
2023/06/01 12:06:38;;;;;;;7.45;2.97;;;15.90;99.90;;;;;;4933041;28;20083;-73
2023/06/01 12:09:06;;;;;;;5.97;2.70;;;16.10;99.90;;;;;;4915867;28;20071;-72
2023/06/01 12:11:32;;;;;;;6.80;2.88;;;16.10;99.90;;;;;;4919014;29;20107;-73
2023/06/01 12:13:59;;;;;;;8.57;3.40;;;16.30;99.90;;;;;;4884797;28;20044;-73
2023/06/01 12:16:27;;;;;;;7.63;2.92;;;15.90;99.90;;;;;;4902175;28;20036;-74
2023/06/01 12:18:56;;;;;;;7.32;3.05;;;15.90;99.90;;;;;;4934234;28;20040;-76
2023/06/01 12:21:22;;;;;;;6.45;3.40;;;15.90;99.90;;;;;;4914699;29;20534;-70
2023/06/01 12:23:53;;;;;;;9.57;3.75;;;15.70;99.90;;;;;;4927091;28;20043;-78
2023/06/01 12:26:19;;;;;;;6.82;3.83;;;15.60;99.90;;;;;;4910956;28;20040;-79
2023/06/01 12:28:55;;;;;;;12.88;3.58;;;15.80;99.90;;;;;;4925093;29;20887;-76
2023/06/01 12:31:21;;;;;;;11.57;3.72;;;15.70;99.90;;;;;;4904543;28;20051;-75
2023/06/01 12:33:51;;;;;;;9.45;3.60;;;15.90;99.90;;;;;;4925839;28;20122;-73
2023/06/01 12:36:34;;;;;;;11.38;3.92;;;15.90;99.90;;;;;;4922256;28;20040;-75
2023/06/01 12:39:01;;;;;;;7.18;3.65;;;15.90;99.90;;;;;;4926866;28;20122;-78
2023/06/01 12:41:28;;;;;;;10.10;3.88;;;16.10;99.90;;;;;;4895645;29;20039;-72
2023/06/01 12:43:55;;;;;;;8.82;3.88;;;16.10;99.90;;;;;;4913660;29;20052;-72
2023/06/01 12:46:23;;;;;;;14.40;3.92;;;16.10;99.90;;;;;;4906195;28;20032;-73
2023/06/01 12:48:50;;;;;;;7.50;3.78;;;16.00;99.90;;;;;;4926036;28;20513;-72
2023/06/01 12:51:16;;;;;;;8.10;3.55;;;15.70;99.90;;;;;;4888520;28;20087;-76